sensor_id;sensor_type;location;lat;lon;timestamp;pressure;altitude;pressure_sealevel;temperature;humidity
27040;BME280;14589;51.578;7.306;2024-02-15T00:00:58;101199.84;;;11.49;100.00
27040;BME280;14589;51.578;7.306;2024-02-15T00:03:30;101186.41;;;11.38;100.00
27040;BME280;14589;51.578;7.306;2024-02-15T00:06:01;101200.00;;;11.48;100.00
27040;BME280;14589;51.578;7.306;2024-02-15T00:08:32;101206.56;;;11.55;100.00
27040;BME280;14589;51.578;7.306;2024-02-15T00:11:03;101210.44;;;11.52;100.00
27040;BME280;14589;51.578;7.306;2024-02-15T00:13:33;101199.13;;;11.57;100.00
27040;BME280;14589;51.578;7.306;2024-02-15T00:16:04;101197.44;;;11.46;100.00
27040;BME280;14589;51.578;7.306;2024-02-15T00:18:34;101195.16;;;11.42;100.00
27040;BME280;14589;51.578;7.306;2024-02-15T00:21:05;101209.28;;;11.45;100.00
27040;BME280;14589;51.578;7.306;2024-02-15T00:23:35;101209.28;;;11.45;100.00
27040;BME280;14589;51.578;7.306;2024-02-15T00:26:06;101214.41;;;11.48;100.00
27040;BME280;14589;51.578;7.306;2024-02-15T00:28:36;101188.25;;;11.38;100.00
27040;BME280;14589;51.578;7.306;2024-02-15T00:31:06;101203.97;;;11.44;100.00
27040;BME280;14589;51.578;7.306;2024-02-15T00:33:38;101203.97;;;11.44;100.00
27040;BME280;14589;51.578;7.306;2024-02-15T00:36:09;101211.13;;;11.45;100.00
27040;BME280;14589;51.578;7.306;2024-02-15T00:38:41;101204.41;;;11.39;100.00
27040;BME280;14589;51.578;7.306;2024-02-15T00:41:13;101210.56;;;11.41;100.00
27040;BME280;14589;51.578;7.306;2024-02-15T00:43:43;101212.56;;;11.39;100.00
27040;BME280;14589;51.578;7.306;2024-02-15T00:46:15;101207.00;;;11.41;100.00
27040;BME280;14589;51.578;7.306;2024-02-15T00:48:45;101215.28;;;11.39;100.00
27040;BME280;14589;51.578;7.306;2024-02-15T00:51:16;101214.84;;;11.44;100.00
27040;BME280;14589;51.578;7.306;2024-02-15T00:53:47;101220.28;;;11.44;100.00
27040;BME280;14589;51.578;7.306;2024-02-15T00:56:17;101226.88;;;11.41;100.00
27040;BME280;14589;51.578;7.306;2024-02-15T00:58:47;101213.56;;;11.38;100.00
27040;BME280;14589;51.578;7.306;2024-02-15T01:01:19;101225.84;;;11.42;100.00
27040;BME280;14589;51.578;7.306;2024-02-15T01:03:49;101210.84;;;11.38;100.00
27040;BME280;14589;51.578;7.306;2024-02-15T01:06:19;101219.59;;;11.42;100.00
27040;BME280;14589;51.578;7.306;2024-02-15T01:08:50;101220.72;;;11.39;100.00
27040;BME280;14589;51.578;7.306;2024-02-15T01:11:20;101220.84;;;11.38;100.00
27040;BME280;14589;51.578;7.306;2024-02-15T01:13:51;101221.28;;;11.43;100.00
27040;BME280;14589;51.578;7.306;2024-02-15T01:16:21;101203.13;;;11.33;100.00
27040;BME280;14589;51.578;7.306;2024-02-15T01:18:51;101222.31;;;11.42;100.00
27040;BME280;14589;51.578;7.306;2024-02-15T01:21:22;101217.00;;;11.40;100.00
27040;BME280;14589;51.578;7.306;2024-02-15T01:23:52;101210.56;;;11.41;100.00
27040;BME280;14589;51.578;7.306;2024-02-15T01:26:24;101217.44;;;11.45;100.00
27040;BME280;14589;51.578;7.306;2024-02-15T01:28:54;101221.44;;;11.41;100.00
27040;BME280;14589;51.578;7.306;2024-02-15T01:31:24;101216.88;;;11.42;100.00
27040;BME280;14589;51.578;7.306;2024-02-15T01:33:55;101214.16;;;11.42;100.00
27040;BME280;14589;51.578;7.306;2024-02-15T01:36:25;101217.69;;;11.42;100.00
27040;BME280;14589;51.578;7.306;2024-02-15T01:38:56;101218.84;;;11.40;100.00
27040;BME280;14589;51.578;7.306;2024-02-15T01:41:27;101219.00;;;11.48;100.00
27040;BME280;14589;51.578;7.306;2024-02-15T01:43:57;101211.69;;;11.48;100.00
27040;BME280;14589;51.578;7.306;2024-02-15T01:46:28;101204.97;;;11.43;100.00
27040;BME280;14589;51.578;7.306;2024-02-15T01:49:00;101208.97;;;11.48;100.00
27040;BME280;14589;51.578;7.306;2024-02-15T01:51:31;101204.56;;;11.47;100.00
27040;BME280;14589;51.578;7.306;2024-02-15T01:54:03;101217.44;;;11.45;100.00
27040;BME280;14589;51.578;7.306;2024-02-15T01:56:34;101213.00;;;11.44;100.00
27040;BME280;14589;51.578;7.306;2024-02-15T01:59:05;101213.00;;;11.44;100.00
27040;BME280;14589;51.578;7.306;2024-02-15T02:01:36;101204.13;;;11.42;100.00
27040;BME280;14589;51.578;7.306;2024-02-15T02:04:07;101203.13;;;11.43;100.00
27040;BME280;14589;51.578;7.306;2024-02-15T02:06:38;101203.84;;;11.45;100.00
27040;BME280;14589;51.578;7.306;2024-02-15T02:09:12;101189.84;;;11.40;100.00
27040;BME280;14589;51.578;7.306;2024-02-15T02:11:46;101200.72;;;11.40;100.00
27040;BME280;14589;51.578;7.306;2024-02-15T02:14:16;101186.69;;;11.45;100.00
27040;BME280;14589;51.578;7.306;2024-02-15T02:16:47;101183.69;;;11.38;100.00
27040;BME280;14589;51.578;7.306;2024-02-15T02:19:17;101186.84;;;11.43;100.00
27040;BME280;14589;51.578;7.306;2024-02-15T02:21:48;101182.41;;;11.42;100.00
27040;BME280;14589;51.578;7.306;2024-02-15T02:24:22;101185.09;;;11.42;100.00
27040;BME280;14589;51.578;7.306;2024-02-15T02:26:52;101177.41;;;11.38;100.00
27040;BME280;14589;51.578;7.306;2024-02-15T02:29:23;101175.53;;;11.38;100.00
27040;BME280;14589;51.578;7.306;2024-02-15T02:31:54;101179.53;;;11.44;100.00
27040;BME280;14589;51.578;7.306;2024-02-15T02:34:25;101178.13;;;11.40;100.00
27040;BME280;14589;51.578;7.306;2024-02-15T02:36:56;101156.84;;;11.35;100.00
27040;BME280;14589;51.578;7.306;2024-02-15T02:39:26;101163.25;;;11.44;100.00
27040;BME280;14589;51.578;7.306;2024-02-15T02:42:01;101170.84;;;11.40;100.00
27040;BME280;14589;51.578;7.306;2024-02-15T02:44:32;101168.53;;;11.45;100.00
27040;BME280;14589;51.578;7.306;2024-02-15T02:47:02;101158.38;;;11.38;100.00
27040;BME280;14589;51.578;7.306;2024-02-15T02:49:35;101161.97;;;11.38;100.00
27040;BME280;14589;51.578;7.306;2024-02-15T02:52:06;101165.28;;;11.42;100.00
27040;BME280;14589;51.578;7.306;2024-02-15T02:54:36;101150.69;;;11.33;100.00
27040;BME280;14589;51.578;7.306;2024-02-15T02:57:07;101160.84;;;11.41;100.00
27040;BME280;14589;51.578;7.306;2024-02-15T02:59:37;101162.28;;;11.35;100.00
27040;BME280;14589;51.578;7.306;2024-02-15T03:02:10;101162.28;;;11.35;100.00
27040;BME280;14589;51.578;7.306;2024-02-15T03:04:40;101156.13;;;11.33;100.00
27040;BME280;14589;51.578;7.306;2024-02-15T03:07:11;101159.56;;;11.35;100.00
27040;BME280;14589;51.578;7.306;2024-02-15T03:09:47;101157.53;;;11.37;100.00
27040;BME280;14589;51.578;7.306;2024-02-15T03:12:17;101156.09;;;11.43;100.00
27040;BME280;14589;51.578;7.306;2024-02-15T03:14:48;101157.25;;;11.40;100.00
27040;BME280;14589;51.578;7.306;2024-02-15T03:17:19;101134.84;;;11.28;100.00
27040;BME280;14589;51.578;7.306;2024-02-15T03:19:49;101156.28;;;11.41;100.00
27040;BME280;14589;51.578;7.306;2024-02-15T03:22:20;101150.13;;;11.39;100.00
27040;BME280;14589;51.578;7.306;2024-02-15T03:24:50;101145.69;;;11.38;100.00
27040;BME280;14589;51.578;7.306;2024-02-15T03:27:21;101144.53;;;11.50;100.00
27040;BME280;14589;51.578;7.306;2024-02-15T03:29:53;101133.38;;;11.44;100.00
27040;BME280;14589;51.578;7.306;2024-02-15T03:32:27;101131.69;;;11.33;100.00
27040;BME280;14589;51.578;7.306;2024-02-15T03:34:57;101136.69;;;11.47;100.00
27040;BME280;14589;51.578;7.306;2024-02-15T03:37:27;101129.38;;;11.38;100.00
27040;BME280;14589;51.578;7.306;2024-02-15T03:39:58;101124.84;;;11.29;100.00
27040;BME280;14589;51.578;7.306;2024-02-15T03:42:30;101145.81;;;11.46;100.00
27040;BME280;14589;51.578;7.306;2024-02-15T03:45:00;101144.38;;;11.42;100.00
27040;BME280;14589;51.578;7.306;2024-02-15T03:47:31;101127.41;;;11.40;100.00
27040;BME280;14589;51.578;7.306;2024-02-15T03:50:03;101130.09;;;11.40;100.00
27040;BME280;14589;51.578;7.306;2024-02-15T03:52:34;101131.25;;;11.38;100.00
27040;BME280;14589;51.578;7.306;2024-02-15T03:55:05;101134.09;;;11.36;100.00
27040;BME280;14589;51.578;7.306;2024-02-15T03:57:40;101135.81;;;11.37;100.00
27040;BME280;14589;51.578;7.306;2024-02-15T04:00:12;101138.84;;;11.34;100.00
27040;BME280;14589;51.578;7.306;2024-02-15T04:02:50;101124.13;;;11.27;100.00
27040;BME280;14589;51.578;7.306;2024-02-15T04:05:21;101127.97;;;11.34;100.00
27040;BME280;14589;51.578;7.306;2024-02-15T04:07:52;101137.38;;;11.30;100.00
27040;BME280;14589;51.578;7.306;2024-02-15T04:10:23;101137.09;;;11.33;100.00
27040;BME280;14589;51.578;7.306;2024-02-15T04:12:54;101135.38;;;11.32;100.00
27040;BME280;14589;51.578;7.306;2024-02-15T04:15:24;101126.25;;;11.33;100.00
27040;BME280;14589;51.578;7.306;2024-02-15T04:17:54;101136.13;;;11.34;100.00
27040;BME280;14589;51.578;7.306;2024-02-15T04:20:26;101122.38;;;11.26;100.00
27040;BME280;14589;51.578;7.306;2024-02-15T04:22:56;101112.53;;;11.25;100.00
27040;BME280;14589;51.578;7.306;2024-02-15T04:25:30;101132.97;;;11.29;100.00
27040;BME280;14589;51.578;7.306;2024-02-15T04:28:01;101128.53;;;11.28;100.00
27040;BME280;14589;51.578;7.306;2024-02-15T04:30:33;101115.53;;;11.22;100.00
27040;BME280;14589;51.578;7.306;2024-02-15T04:33:05;101128.25;;;11.31;100.00
27040;BME280;14589;51.578;7.306;2024-02-15T04:35:35;101124.53;;;11.32;100.00
27040;BME280;14589;51.578;7.306;2024-02-15T04:38:06;101117.69;;;11.28;100.00
27040;BME280;14589;51.578;7.306;2024-02-15T04:40:38;101124.53;;;11.32;100.00
27040;BME280;14589;51.578;7.306;2024-02-15T04:43:09;101127.56;;;11.29;100.00
27040;BME280;14589;51.578;7.306;2024-02-15T04:45:40;101123.81;;;11.30;100.00
27040;BME280;14589;51.578;7.306;2024-02-15T04:48:11;101116.53;;;11.21;100.00
27040;BME280;14589;51.578;7.306;2024-02-15T04:50:44;101126.69;;;11.28;100.00
27040;BME280;14589;51.578;7.306;2024-02-15T04:53:15;101106.81;;;11.18;100.00
27040;BME280;14589;51.578;7.306;2024-02-15T04:55:45;101121.09;;;11.30;100.00
27040;BME280;14589;51.578;7.306;2024-02-15T04:58:16;101113.53;;;11.24;100.00
27040;BME280;14589;51.578;7.306;2024-02-15T05:00:46;101115.38;;;11.33;100.00
27040;BME280;14589;51.578;7.306;2024-02-15T05:03:18;101112.81;;;11.31;100.00
27040;BME280;14589;51.578;7.306;2024-02-15T05:05:49;101111.09;;;11.30;100.00
27040;BME280;14589;51.578;7.306;2024-02-15T05:08:19;101115.97;;;11.27;100.00
27040;BME280;14589;51.578;7.306;2024-02-15T05:10:50;101118.53;;;11.28;100.00
27040;BME280;14589;51.578;7.306;2024-02-15T05:13:26;101106.53;;;11.21;100.00
27040;BME280;14589;51.578;7.306;2024-02-15T05:15:57;101116.53;;;11.30;100.00
27040;BME280;14589;51.578;7.306;2024-02-15T05:18:27;101112.81;;;11.31;100.00
27040;BME280;14589;51.578;7.306;2024-02-15T05:20:58;101114.97;;;11.28;100.00
27040;BME280;14589;51.578;7.306;2024-02-15T05:23:28;101095.69;;;11.21;100.00
27040;BME280;14589;51.578;7.306;2024-02-15T05:25:59;101100.66;;;11.26;100.00
27040;BME280;14589;51.578;7.306;2024-02-15T05:28:29;101106.81;;;11.28;100.00
27040;BME280;14589;51.578;7.306;2024-02-15T05:31:18;101108.09;;;11.33;100.00
27040;BME280;14589;51.578;7.306;2024-02-15T05:33:50;101103.13;;;11.29;100.00
27040;BME280;14589;51.578;7.306;2024-02-15T05:36:21;101111.94;;;11.31;100.00
27040;BME280;14589;51.578;7.306;2024-02-15T05:38:54;101089.81;;;11.26;100.00
27040;BME280;14589;51.578;7.306;2024-02-15T05:41:25;101108.81;;;11.35;100.00
27040;BME280;14589;51.578;7.306;2024-02-15T05:43:55;101102.81;;;11.32;100.00
27040;BME280;14589;51.578;7.306;2024-02-15T05:46:27;101105.53;;;11.32;100.00
27040;BME280;14589;51.578;7.306;2024-02-15T05:48:58;101089.09;;;11.33;100.00
27040;BME280;14589;51.578;7.306;2024-02-15T05:51:29;101085.38;;;11.25;100.00
27040;BME280;14589;51.578;7.306;2024-02-15T05:54:02;101091.69;;;11.35;100.00
27040;BME280;14589;51.578;7.306;2024-02-15T05:56:33;101087.25;;;11.34;100.00
27040;BME280;14589;51.578;7.306;2024-02-15T05:59:03;101084.50;;;11.44;100.00
27040;BME280;14589;51.578;7.306;2024-02-15T06:01:40;101094.22;;;11.46;100.00
27040;BME280;14589;51.578;7.306;2024-02-15T06:04:11;101098.06;;;11.44;100.00
27040;BME280;14589;51.578;7.306;2024-02-15T06:06:42;101101.06;;;11.50;100.00
27040;BME280;14589;51.578;7.306;2024-02-15T06:09:13;101088.47;;;11.49;100.00
27040;BME280;14589;51.578;7.306;2024-02-15T06:11:43;101084.91;;;11.49;100.00
27040;BME280;14589;51.578;7.306;2024-02-15T06:14:15;101095.94;;;11.47;100.00
27040;BME280;14589;51.578;7.306;2024-02-15T06:16:45;101084.91;;;11.49;100.00
27040;BME280;14589;51.578;7.306;2024-02-15T06:19:16;101104.50;;;11.52;100.00
27040;BME280;14589;51.578;7.306;2024-02-15T06:21:46;101089.66;;;11.47;100.00
27040;BME280;14589;51.578;7.306;2024-02-15T06:24:17;101091.50;;;11.46;100.00
27040;BME280;14589;51.578;7.306;2024-02-15T06:26:47;101099.66;;;11.46;100.00
27040;BME280;14589;51.578;7.306;2024-02-15T06:29:21;101098.34;;;11.50;100.00
27040;BME280;14589;51.578;7.306;2024-02-15T06:32:10;101098.75;;;11.55;100.00
27040;BME280;14589;51.578;7.306;2024-02-15T06:34:59;101106.31;;;11.61;100.00
27040;BME280;14589;51.578;7.306;2024-02-15T06:37:47;101093.63;;;11.52;100.00
27040;BME280;14589;51.578;7.306;2024-02-15T06:40:36;101116.78;;;11.56;100.00
27040;BME280;14589;51.578;7.306;2024-02-15T06:43:06;101106.22;;;11.53;100.00
27040;BME280;14589;51.578;7.306;2024-02-15T06:45:39;101105.63;;;11.50;100.00
27040;BME280;14589;51.578;7.306;2024-02-15T06:48:12;101104.78;;;11.49;100.00
27040;BME280;14589;51.578;7.306;2024-02-15T06:50:43;101110.22;;;11.49;100.00
27040;BME280;14589;51.578;7.306;2024-02-15T06:53:14;101115.06;;;11.55;100.00
27040;BME280;14589;51.578;7.306;2024-02-15T06:55:44;101116.78;;;11.56;100.00
27040;BME280;14589;51.578;7.306;2024-02-15T06:58:15;101119.50;;;11.56;100.00
27040;BME280;14589;51.578;7.306;2024-02-15T07:00:48;101114.50;;;11.52;100.00
27040;BME280;14589;51.578;7.306;2024-02-15T07:03:18;101111.06;;;11.50;100.00
27040;BME280;14589;51.578;7.306;2024-02-15T07:05:49;101122.25;;;11.47;100.00
27040;BME280;14589;51.578;7.306;2024-02-15T07:08:20;101128.09;;;11.52;100.00
27040;BME280;14589;51.578;7.306;2024-02-15T07:10:50;101111.50;;;11.45;100.00
27040;BME280;14589;51.578;7.306;2024-02-15T07:13:21;101116.81;;;11.47;100.00
27040;BME280;14589;51.578;7.306;2024-02-15T07:15:52;101121.66;;;11.43;100.00
27040;BME280;14589;51.578;7.306;2024-02-15T07:18:23;101134.09;;;11.46;100.00
27040;BME280;14589;51.578;7.306;2024-02-15T07:20:53;101119.66;;;11.45;100.00
27040;BME280;14589;51.578;7.306;2024-02-15T07:23:23;101122.53;;;11.53;100.00
27040;BME280;14589;51.578;7.306;2024-02-15T07:25:55;101122.94;;;11.49;100.00
27040;BME280;14589;51.578;7.306;2024-02-15T07:28:25;101124.78;;;11.48;100.00
27040;BME280;14589;51.578;7.306;2024-02-15T07:30:56;101121.38;;;11.46;100.00
27040;BME280;14589;51.578;7.306;2024-02-15T07:33:26;101106.34;;;11.42;100.00
27040;BME280;14589;51.578;7.306;2024-02-15T07:35:59;101105.09;;;11.46;100.00
27040;BME280;14589;51.578;7.306;2024-02-15T07:38:29;101109.22;;;11.50;100.00
27040;BME280;14589;51.578;7.306;2024-02-15T07:41:00;101100.34;;;11.48;100.00
27040;BME280;14589;51.578;7.306;2024-02-15T07:43:31;101092.50;;;11.45;100.00
27040;BME280;14589;51.578;7.306;2024-02-15T07:46:03;101081.66;;;11.45;100.00
27040;BME280;14589;51.578;7.306;2024-02-15T07:48:34;101076.06;;;11.47;100.00
27040;BME280;14589;51.578;7.306;2024-02-15T07:51:05;101041.50;;;11.39;100.00
27040;BME280;14589;51.578;7.306;2024-02-15T07:53:40;101057.03;;;11.56;100.00
27040;BME280;14589;51.578;7.306;2024-02-15T07:56:11;101044.75;;;11.52;100.00
27040;BME280;14589;51.578;7.306;2024-02-15T07:58:42;101030.75;;;11.47;100.00
27040;BME280;14589;51.578;7.306;2024-02-15T08:01:16;101028.47;;;11.52;100.00
27040;BME280;14589;51.578;7.306;2024-02-15T08:03:47;101020.72;;;11.57;100.00
27040;BME280;14589;51.578;7.306;2024-02-15T08:06:18;101042.84;;;11.62;100.00
27040;BME280;14589;51.578;7.306;2024-02-15T08:08:48;101056.56;;;11.61;100.00
27040;BME280;14589;51.578;7.306;2024-02-15T08:11:21;101057.88;;;11.57;100.00
27040;BME280;14589;51.578;7.306;2024-02-15T08:13:53;101061.75;;;11.54;100.00
27040;BME280;14589;51.578;7.306;2024-02-15T08:16:29;101068.16;;;11.63;100.00
27040;BME280;14589;51.578;7.306;2024-02-15T08:18:59;101059.00;;;11.64;100.00
27040;BME280;14589;51.578;7.306;2024-02-15T08:21:31;101081.59;;;11.64;100.00
27040;BME280;14589;51.578;7.306;2024-02-15T08:24:07;101080.28;;;11.68;100.00
27040;BME280;14589;51.578;7.306;2024-02-15T08:26:39;101088.75;;;11.75;100.00
27040;BME280;14589;51.578;7.306;2024-02-15T08:29:11;101078.59;;;11.77;100.00
27040;BME280;14589;51.578;7.306;2024-02-15T08:31:42;101091.00;;;11.80;100.00
27040;BME280;14589;51.578;7.306;2024-02-15T08:34:12;101084.28;;;11.84;100.00
27040;BME280;14589;51.578;7.306;2024-02-15T08:36:44;101093.72;;;11.89;100.00
27040;BME280;14589;51.578;7.306;2024-02-15T08:39:14;101092.41;;;11.93;100.00
27040;BME280;14589;51.578;7.306;2024-02-15T08:41:46;101088.81;;;11.93;100.00
27040;BME280;14589;51.578;7.306;2024-02-15T08:44:17;101084.38;;;12.01;100.00
27040;BME280;14589;51.578;7.306;2024-02-15T08:46:49;101077.50;;;11.97;100.00
27040;BME280;14589;51.578;7.306;2024-02-15T08:49:19;101070.19;;;11.98;100.00
27040;BME280;14589;51.578;7.306;2024-02-15T08:51:50;101080.47;;;12.04;100.00
27040;BME280;14589;51.578;7.306;2024-02-15T08:54:21;101076.06;;;12.03;100.00
27040;BME280;14589;51.578;7.306;2024-02-15T08:56:51;101073.19;;;12.04;100.00
27040;BME280;14589;51.578;7.306;2024-02-15T08:59:22;101077.06;;;12.02;100.00
27040;BME280;14589;51.578;7.306;2024-02-15T09:01:52;101076.63;;;12.06;100.00
27040;BME280;14589;51.578;7.306;2024-02-15T09:04:24;101079.28;;;12.16;100.00
27040;BME280;14589;51.578;7.306;2024-02-15T09:06:56;101066.84;;;12.13;100.00
27040;BME280;14589;51.578;7.306;2024-02-15T09:09:27;101064.28;;;12.12;100.00
27040;BME280;14589;51.578;7.306;2024-02-15T09:11:57;101062.56;;;12.11;100.00
27040;BME280;14589;51.578;7.306;2024-02-15T09:14:28;101064.00;;;12.15;100.00
27040;BME280;14589;51.578;7.306;2024-02-15T09:16:59;101064.13;;;12.13;100.00
27040;BME280;14589;51.578;7.306;2024-02-15T09:19:30;101040.88;;;12.01;100.00
27040;BME280;14589;51.578;7.306;2024-02-15T09:22:01;101054.31;;;12.03;100.00
27040;BME280;14589;51.578;7.306;2024-02-15T09:24:34;101076.28;;;12.19;100.00
27040;BME280;14589;51.578;7.306;2024-02-15T09:27:04;101077.59;;;12.15;100.00
27040;BME280;14589;51.578;7.306;2024-02-15T09:29:35;101073.22;;;12.22;100.00
27040;BME280;14589;51.578;7.306;2024-02-15T09:32:05;101054.53;;;12.19;100.00
27040;BME280;14589;51.578;7.306;2024-02-15T09:34:36;101054.19;;;12.22;100.00
27040;BME280;14589;51.578;7.306;2024-02-15T09:37:06;101059.22;;;12.27;100.00
27040;BME280;14589;51.578;7.306;2024-02-15T09:39:37;101060.22;;;12.26;100.00
27040;BME280;14589;51.578;7.306;2024-02-15T09:42:08;101060.06;;;12.27;100.00
27040;BME280;14589;51.578;7.306;2024-02-15T09:44:39;101061.75;;;12.28;100.00
27040;BME280;14589;51.578;7.306;2024-02-15T09:47:15;101051.66;;;12.21;100.00
27040;BME280;14589;51.578;7.306;2024-02-15T09:49:47;101051.19;;;12.25;100.00
27040;BME280;14589;51.578;7.306;2024-02-15T09:52:17;101055.03;;;12.32;100.00
27040;BME280;14589;51.578;7.306;2024-02-15T09:54:48;101052.69;;;12.37;100.00
27040;BME280;14589;51.578;7.306;2024-02-15T09:57:19;101034.97;;;12.33;100.00
27040;BME280;14589;51.578;7.306;2024-02-15T09:59:50;101058.50;;;12.52;100.00
27040;BME280;14589;51.578;7.306;2024-02-15T10:02:21;101047.38;;;12.63;100.00
27040;BME280;14589;51.578;7.306;2024-02-15T10:04:56;101046.03;;;12.67;100.00
27040;BME280;14589;51.578;7.306;2024-02-15T10:07:26;101044.50;;;12.82;100.00
27040;BME280;14589;51.578;7.306;2024-02-15T10:10:14;101057.50;;;12.88;100.00
27040;BME280;14589;51.578;7.306;2024-02-15T10:12:50;101043.41;;;12.93;100.00
27040;BME280;14589;51.578;7.306;2024-02-15T10:15:28;101047.06;;;13.02;100.00
27040;BME280;14589;51.578;7.306;2024-02-15T10:18:04;101051.03;;;13.07;100.00
27040;BME280;14589;51.578;7.306;2024-02-15T10:20:39;101042.47;;;13.02;100.00
27040;BME280;14589;51.578;7.306;2024-02-15T10:23:11;101047.97;;;13.10;100.00
27040;BME280;14589;51.578;7.306;2024-02-15T10:25:43;101055.91;;;13.04;100.00
27040;BME280;14589;51.578;7.306;2024-02-15T10:28:19;101063.31;;;13.11;100.00
27040;BME280;14589;51.578;7.306;2024-02-15T10:30:51;101057.75;;;13.13;100.00
27040;BME280;14589;51.578;7.306;2024-02-15T10:33:26;101058.59;;;13.13;100.00
27040;BME280;14589;51.578;7.306;2024-02-15T10:36:09;101061.00;;;13.16;100.00
27040;BME280;14589;51.578;7.306;2024-02-15T10:38:41;101053.91;;;13.23;100.00
27040;BME280;14589;51.578;7.306;2024-02-15T10:41:12;101051.91;;;13.25;100.00
27040;BME280;14589;51.578;7.306;2024-02-15T10:43:43;101043.94;;;13.32;100.00
27040;BME280;14589;51.578;7.306;2024-02-15T10:46:15;101046.19;;;13.36;100.00
27040;BME280;14589;51.578;7.306;2024-02-15T10:48:47;101047.25;;;13.44;100.00
27040;BME280;14589;51.578;7.306;2024-02-15T10:51:18;101041.47;;;13.47;100.00
27040;BME280;14589;51.578;7.306;2024-02-15T10:54:02;101042.34;;;13.47;100.00
27040;BME280;14589;51.578;7.306;2024-02-15T10:56:37;101027.59;;;13.58;100.00
27040;BME280;14589;51.578;7.306;2024-02-15T10:59:17;101029.28;;;13.59;100.00
27040;BME280;14589;51.578;7.306;2024-02-15T11:01:49;101028.63;;;13.57;100.00
27040;BME280;14589;51.578;7.306;2024-02-15T11:04:24;101031.00;;;13.60;100.00
27040;BME280;14589;51.578;7.306;2024-02-15T11:06:57;101019.03;;;13.53;100.00
27040;BME280;14589;51.578;7.306;2024-02-15T11:09:29;101029.63;;;13.56;100.00
27040;BME280;14589;51.578;7.306;2024-02-15T11:12:00;101030.31;;;13.58;100.00
27040;BME280;14589;51.578;7.306;2024-02-15T11:14:32;101038.88;;;13.63;100.00
27040;BME280;14589;51.578;7.306;2024-02-15T11:17:03;101022.69;;;13.61;100.00
27040;BME280;14589;51.578;7.306;2024-02-15T11:22:11;101019.47;;;13.66;100.00
27040;BME280;14589;51.578;7.306;2024-02-15T11:24:46;101019.81;;;13.63;100.00
27040;BME280;14589;51.578;7.306;2024-02-15T11:27:25;101018.97;;;13.70;100.00
27040;BME280;14589;51.578;7.306;2024-02-15T11:29:57;101024.59;;;13.69;100.00
27040;BME280;14589;51.578;7.306;2024-02-15T11:32:49;101014.78;;;13.76;100.00
27040;BME280;14589;51.578;7.306;2024-02-15T11:35:23;101021.22;;;13.75;100.00
27040;BME280;14589;51.578;7.306;2024-02-15T11:37:55;101008.94;;;13.71;100.00
27040;BME280;14589;51.578;7.306;2024-02-15T11:43:49;101006.25;;;13.79;100.00
27040;BME280;14589;51.578;7.306;2024-02-15T11:46:26;101009.69;;;13.81;100.00
27040;BME280;14589;51.578;7.306;2024-02-15T11:49:00;100992.97;;;13.84;100.00
27040;BME280;14589;51.578;7.306;2024-02-15T11:51:35;100995.41;;;13.87;100.00
27040;BME280;14589;51.578;7.306;2024-02-15T11:54:24;100981.41;;;13.90;100.00
27040;BME280;14589;51.578;7.306;2024-02-15T11:56:55;100979.25;;;13.94;100.00
27040;BME280;14589;51.578;7.306;2024-02-15T11:59:41;100980.75;;;13.88;100.00
27040;BME280;14589;51.578;7.306;2024-02-15T12:02:42;100988.59;;;13.91;100.00
27040;BME280;14589;51.578;7.306;2024-02-15T12:05:31;100984.88;;;14.00;100.00
27040;BME280;14589;51.578;7.306;2024-02-15T12:08:28;100962.03;;;13.93;100.00
27040;BME280;14589;51.578;7.306;2024-02-15T12:11:16;100975.00;;;14.07;99.05
27040;BME280;14589;51.578;7.306;2024-02-15T12:14:05;100977.41;;;14.10;98.79
27040;BME280;14589;51.578;7.306;2024-02-15T12:17:04;100979.13;;;14.19;97.50
27040;BME280;14589;51.578;7.306;2024-02-15T12:19:56;100970.78;;;14.21;97.63
27040;BME280;14589;51.578;7.306;2024-02-15T12:22:30;100957.69;;;14.25;98.37
27040;BME280;14589;51.578;7.306;2024-02-15T12:25:02;100960.63;;;14.39;97.82
27040;BME280;14589;51.578;7.306;2024-02-15T12:27:45;100955.53;;;14.44;95.37
27040;BME280;14589;51.578;7.306;2024-02-15T12:30:17;100955.69;;;14.51;95.87
27040;BME280;14589;51.578;7.306;2024-02-15T12:32:52;100944.97;;;14.49;97.02
27040;BME280;14589;51.578;7.306;2024-02-15T12:35:23;100954.53;;;14.62;95.27
27040;BME280;14589;51.578;7.306;2024-02-15T12:40:33;100941.06;;;14.84;93.43
27040;BME280;14589;51.578;7.306;2024-02-15T12:43:07;100942.91;;;15.00;90.43
27040;BME280;14589;51.578;7.306;2024-02-15T12:45:40;100935.25;;;15.04;89.40
27040;BME280;14589;51.578;7.306;2024-02-15T12:48:11;100928.59;;;14.98;89.94
27040;BME280;14589;51.578;7.306;2024-02-15T12:50:41;100922.09;;;14.99;89.88
27040;BME280;14589;51.578;7.306;2024-02-15T12:53:12;100940.69;;;15.04;88.70
27040;BME280;14589;51.578;7.306;2024-02-15T12:55:42;100921.06;;;15.08;89.42
27040;BME280;14589;51.578;7.306;2024-02-15T12:58:13;100915.75;;;15.07;87.91
27040;BME280;14589;51.578;7.306;2024-02-15T13:00:45;100911.84;;;15.09;89.00
27040;BME280;14589;51.578;7.306;2024-02-15T13:03:15;100923.94;;;15.15;89.44
27040;BME280;14589;51.578;7.306;2024-02-15T13:05:48;100921.72;;;15.18;87.84
27040;BME280;14589;51.578;7.306;2024-02-15T13:08:19;100907.53;;;15.23;88.22
27040;BME280;14589;51.578;7.306;2024-02-15T13:10:50;100918.97;;;15.34;87.43
27040;BME280;14589;51.578;7.306;2024-02-15T13:13:21;100915.53;;;15.41;87.19
27040;BME280;14589;51.578;7.306;2024-02-15T13:15:53;100907.09;;;15.50;86.07